Terminal Aerodrome Forecast
Issued by NWS Twin Cities, MN

Home | Current Version | Previous Version | Graphics & Text | Print | Product List | Glossary On
Versions: 1 2 3 4 5 6 7 8 9 10 11 12 13 14 15 16 17 18 19 20 21 22 23 24 25 26 27 28 29
669
FTUS43 KMPX 231120
TAFMSP
TAF
KMSP 231120Z 2312/2418 06008KT P6SM BKN008 OVC012
     FM231500 08010KT P6SM BKN012 OVC035
     FM231800 08010KT P6SM BKN018 OVC035
     FM232100 09012KT P6SM VCSH BKN025 OVC050
     FM240300 11010KT P6SM SCT006 OVC015=

USA.gov is the U.S. government's official web portal to all federal, state and local government web resources and services.